createdAt,value
2023-03-14T00:00:15.043Z,147845.31
2023-03-14T00:01:21.378Z,147835.63
2023-03-14T00:02:23.955Z,147833.22
2023-03-14T00:03:26.563Z,147835.63
2023-03-14T00:04:29.092Z,147833.22
2023-03-14T00:05:31.733Z,147841.69
2023-03-14T00:06:35.685Z,147825.91
2023-03-14T00:07:39.899Z,147840.47
2023-03-14T00:08:43.859Z,147840.47
2023-03-14T00:09:46.374Z,147819.88
2023-03-14T00:10:48.902Z,147816.25
2023-03-14T00:11:51.406Z,147827.13
2023-03-14T00:12:53.687Z,147823.50
2023-03-14T00:13:56.212Z,147817.44
2023-03-14T00:14:58.847Z,147825.91
2023-03-14T00:16:06.623Z,147857.41
2023-03-14T00:17:09.418Z,147821.09
2023-03-14T00:18:11.932Z,147842.91
2023-03-14T00:19:14.452Z,147842.91
2023-03-14T00:20:16.972Z,147859.84
2023-03-14T00:21:19.633Z,147827.13
2023-03-14T00:22:22.863Z,147835.63
2023-03-14T00:23:25.380Z,147830.81
2023-03-14T00:24:27.900Z,147842.91
2023-03-14T00:25:30.427Z,147850.16
2023-03-14T00:26:33.058Z,147867.13
2023-03-14T00:27:35.945Z,147869.56
2023-03-14T00:28:39.060Z,147915.56
2023-03-14T00:29:43.381Z,147876.81
2023-03-14T00:30:45.904Z,147891.31
2023-03-14T00:31:48.662Z,147884.06
2023-03-14T00:32:51.161Z,147881.66
2023-03-14T00:33:54.782Z,147884.06
2023-03-14T00:34:57.427Z,147864.72
2023-03-14T00:36:06.479Z,147890.13
2023-03-14T00:37:09.064Z,147863.50
2023-03-14T00:38:11.465Z,147867.13
2023-03-14T00:39:13.995Z,147861.09
2023-03-14T00:40:18.732Z,147891.31
2023-03-14T00:41:23.834Z,147901.03
2023-03-14T00:42:26.346Z,147915.56
2023-03-14T00:43:28.869Z,147921.59
2023-03-14T00:44:31.756Z,147888.91
2023-03-14T00:45:34.268Z,147890.13
2023-03-14T00:46:38.043Z,147886.47
2023-03-14T00:47:41.473Z,147896.22
2023-03-14T00:48:46.530Z,147903.47
2023-03-14T00:49:49.155Z,147904.66
2023-03-14T00:50:51.551Z,147904.66
2023-03-14T00:51:54.072Z,147903.47
2023-03-14T00:52:56.723Z,147903.47
2023-03-14T00:54:00.312Z,147896.22
2023-03-14T00:55:02.730Z,147893.78
2023-03-14T00:56:07.301Z,147907.09
2023-03-14T00:57:10.039Z,147916.75
2023-03-14T00:58:14.355Z,147950.72
2023-03-14T00:59:17.717Z,147964.09
2023-03-14T01:00:20.236Z,147981.03
2023-03-14T01:01:23.236Z,147977.38
2023-03-14T01:02:26.869Z,147982.22
2023-03-14T01:03:29.243Z,147950.72
2023-03-14T01:04:32.360Z,147959.25
2023-03-14T01:05:35.003Z,147953.16
2023-03-14T01:06:37.536Z,148005.25
2023-03-14T01:07:40.047Z,148010.09
2023-03-14T01:08:42.932Z,147987.06
2023-03-14T01:09:45.449Z,147989.50
2023-03-14T01:10:47.973Z,147993.16
2023-03-14T01:11:51.087Z,147968.94
2023-03-14T01:12:53.733Z,147990.69
2023-03-14T01:13:56.980Z,147974.97
2023-03-14T01:14:59.611Z,147989.50
2023-03-14T01:16:05.571Z,148004.06
2023-03-14T01:17:08.019Z,148019.78
2023-03-14T01:18:10.534Z,148025.88
2023-03-14T01:19:13.305Z,148036.78
2023-03-14T01:20:16.654Z,147998.00
2023-03-14T01:21:28.418Z,148012.53
2023-03-14T01:22:30.940Z,147995.59
2023-03-14T01:23:33.458Z,147990.69
2023-03-14T01:24:37.559Z,147981.03
2023-03-14T01:25:42.826Z,147971.34
2023-03-14T01:26:45.463Z,147951.94
2023-03-14T01:27:48.109Z,147956.78
2023-03-14T01:28:53.026Z,147987.06
2023-03-14T01:29:55.544Z,147966.50
2023-03-14T01:31:04.100Z,147985.84
2023-03-14T01:32:06.716Z,147967.72
2023-03-14T01:33:09.351Z,147956.78
2023-03-14T01:34:11.867Z,147955.56
2023-03-14T01:35:14.748Z,147961.66
2023-03-14T01:36:17.638Z,147939.84
2023-03-14T01:37:20.390Z,147947.09
2023-03-14T01:38:23.289Z,147951.94
2023-03-14T01:39:25.792Z,147954.34
2023-03-14T01:40:28.312Z,147951.94
2023-03-14T01:41:30.983Z,147961.66
2023-03-14T01:42:34.794Z,147956.78
2023-03-14T01:43:37.315Z,147949.53
2023-03-14T01:44:56.420Z,147984.66
2023-03-14T01:46:05.783Z,147984.66
2023-03-14T01:47:09.719Z,147966.50
2023-03-14T01:48:12.359Z,147964.09
2023-03-14T01:49:23.641Z,147966.50
2023-03-14T01:50:35.156Z,147960.44
2023-03-14T01:51:45.720Z,147989.50
2023-03-14T01:52:50.764Z,148008.91
2023-03-14T01:53:59.312Z,147989.50
2023-03-14T01:55:13.201Z,147990.69
2023-03-14T01:56:18.244Z,147977.38
2023-03-14T01:57:27.495Z,147985.84
2023-03-14T01:58:33.016Z,147983.44
2023-03-14T01:59:38.165Z,147972.56
2023-03-14T02:00:40.754Z,147942.25
2023-03-14T02:01:46.090Z,147971.34
2023-03-14T02:02:52.089Z,147961.66
2023-03-14T02:04:00.728Z,147947.09
2023-03-14T02:05:04.698Z,147927.75
2023-03-14T02:06:11.543Z,147922.81
2023-03-14T02:07:42.132Z,147976.19
2023-03-14T02:08:50.664Z,147928.97
2023-03-14T02:09:57.735Z,147968.94
2023-03-14T02:11:03.252Z,147964.09
2023-03-14T02:12:21.863Z,147971.34
2023-03-14T02:13:30.734Z,147933.78
2023-03-14T02:14:49.230Z,147964.09
2023-03-14T02:15:59.777Z,147950.72
2023-03-14T02:17:20.071Z,148005.25
2023-03-14T02:18:44.301Z,147959.25
2023-03-14T02:20:13.573Z,147966.50
2023-03-14T02:21:48.375Z,148000.41
2023-03-14T02:22:51.853Z,147976.19
2023-03-14T02:24:08.301Z,147998.00
2023-03-14T02:25:35.419Z,148024.66
2023-03-14T02:26:43.463Z,148007.69
2023-03-14T02:27:46.336Z,147990.69
2023-03-14T02:28:50.901Z,147988.28
2023-03-14T02:29:58.219Z,148000.41
2023-03-14T02:31:00.857Z,147996.78
2023-03-14T02:32:03.726Z,148002.84
2023-03-14T02:33:20.045Z,148017.38
2023-03-14T02:34:22.817Z,147998.00
2023-03-14T02:35:34.597Z,148034.34
2023-03-14T02:36:37.342Z,148014.94
2023-03-14T02:37:48.984Z,148025.88
2023-03-14T02:38:59.563Z,148022.19
2023-03-14T02:40:05.553Z,147966.50
2023-03-14T02:41:09.760Z,147949.53
2023-03-14T02:42:18.145Z,147930.16
2023-03-14T02:43:21.155Z,147910.72
2023-03-14T02:44:29.547Z,147926.53
2023-03-14T02:45:37.644Z,147924.03
2023-03-14T02:46:40.001Z,147901.03
2023-03-14T02:47:50.549Z,147884.06
2023-03-14T02:48:58.953Z,147855.00
2023-03-14T02:50:18.994Z,147845.31
2023-03-14T02:51:23.462Z,147807.78
2023-03-14T02:52:26.068Z,147794.44
2023-03-14T02:53:33.997Z,147811.41
2023-03-14T02:54:41.573Z,147794.44
2023-03-14T02:55:48.877Z,147813.81
2023-03-14T02:56:53.208Z,147789.59
2023-03-14T02:57:55.594Z,147792.00
2023-03-14T02:58:58.870Z,147779.94
2023-03-14T03:00:24.407Z,147776.31
2023-03-14T03:01:27.778Z,147770.25
2023-03-14T03:02:30.755Z,147775.09
2023-03-14T03:03:34.302Z,147750.88
2023-03-14T03:04:38.198Z,147747.22
2023-03-14T03:05:40.716Z,147730.31
2023-03-14T03:06:43.733Z,147700.03
2023-03-14T03:07:46.364Z,147669.78
2023-03-14T03:08:49.004Z,147639.50
2023-03-14T03:09:52.129Z,147608.03
2023-03-14T03:10:55.482Z,147579.00
2023-03-14T03:11:58.008Z,147557.19
2023-03-14T03:13:02.701Z,147542.66
2023-03-14T03:14:05.202Z,147528.09
2023-03-14T03:15:08.325Z,147525.69
2023-03-14T03:16:14.827Z,147494.22
2023-03-14T03:17:17.442Z,147488.19
2023-03-14T03:18:20.595Z,147476.09
2023-03-14T03:19:23.085Z,147461.56
2023-03-14T03:20:25.504Z,147472.47
2023-03-14T03:21:28.155Z,147451.91
2023-03-14T03:22:30.544Z,147466.41
2023-03-14T03:23:33.177Z,147451.91
2023-03-14T03:24:35.814Z,147438.63
2023-03-14T03:25:38.578Z,147450.69
2023-03-14T03:26:41.341Z,147455.53
2023-03-14T03:27:46.400Z,147443.44
2023-03-14T03:28:53.105Z,147444.66
2023-03-14T03:29:55.739Z,147444.66
2023-03-14T03:30:58.300Z,147450.69
2023-03-14T03:32:01.146Z,147448.28
2023-03-14T03:33:03.796Z,147448.28
2023-03-14T03:34:06.303Z,147450.69
2023-03-14T03:35:09.190Z,147453.09
2023-03-14T03:36:14.405Z,147450.69
2023-03-14T03:37:16.991Z,147444.66
2023-03-14T03:38:21.316Z,147441.03
2023-03-14T03:39:26.233Z,147431.31
2023-03-14T03:40:28.999Z,147419.25
2023-03-14T03:41:32.469Z,147434.94
2023-03-14T03:42:36.083Z,147436.16
2023-03-14T03:43:38.717Z,147424.06
2023-03-14T03:44:44.231Z,147415.63
2023-03-14T03:45:47.126Z,147410.78
2023-03-14T03:46:49.653Z,147405.94
2023-03-14T03:47:54.073Z,147412.00
2023-03-14T03:48:57.682Z,147413.19
2023-03-14T03:50:01.577Z,147399.88
2023-03-14T03:51:04.410Z,147378.13
2023-03-14T03:52:07.640Z,147375.72
2023-03-14T03:53:10.253Z,147372.09
2023-03-14T03:54:12.805Z,147357.56
2023-03-14T03:55:15.334Z,147361.19
2023-03-14T03:56:19.039Z,147356.34
2023-03-14T03:57:21.800Z,147356.34
2023-03-14T03:58:24.322Z,147361.19
2023-03-14T03:59:26.976Z,147355.13
2023-03-14T04:00:29.485Z,147352.72
2023-03-14T04:01:32.131Z,147350.31
2023-03-14T04:02:36.012Z,147356.34
2023-03-14T04:03:41.751Z,147358.75
2023-03-14T04:04:44.628Z,147363.59
2023-03-14T04:05:48.086Z,147368.41
2023-03-14T04:06:50.610Z,147373.28
2023-03-14T04:07:53.967Z,147385.38
2023-03-14T04:09:00.451Z,147393.81
2023-03-14T04:10:14.252Z,147402.28
2023-03-14T04:11:23.130Z,147416.81
2023-03-14T04:12:35.026Z,147412.00
2023-03-14T04:13:44.017Z,147420.44
2023-03-14T04:14:46.668Z,147436.16
2023-03-14T04:15:54.585Z,147444.66
2023-03-14T04:17:00.584Z,147451.91
2023-03-14T04:18:03.094Z,147457.94
2023-03-14T04:19:06.701Z,147465.19
2023-03-14T04:20:11.875Z,147465.19
2023-03-14T04:21:16.181Z,147479.72
2023-03-14T04:22:24.943Z,147484.56
2023-03-14T04:23:28.779Z,147495.44
2023-03-14T04:24:31.905Z,147502.72
2023-03-14T04:25:34.444Z,147513.59
2023-03-14T04:26:40.303Z,147514.81
2023-03-14T04:27:44.623Z,147518.44
2023-03-14T04:28:54.829Z,147534.13
2023-03-14T04:29:58.547Z,147540.22
2023-03-14T04:31:21.573Z,147557.19
2023-03-14T04:32:24.854Z,147547.47
2023-03-14T04:33:27.360Z,147551.16
2023-03-14T04:34:32.146Z,147539.03
2023-03-14T04:35:34.938Z,147552.38
2023-03-14T04:36:42.840Z,147554.78
2023-03-14T04:37:50.386Z,147562.03
2023-03-14T04:38:53.747Z,147564.44
2023-03-14T04:39:57.476Z,147558.41
2023-03-14T04:41:04.791Z,147557.19
2023-03-14T04:42:08.509Z,147566.88
2023-03-14T04:43:13.553Z,147547.47
2023-03-14T04:44:23.271Z,147558.41
2023-03-14T04:45:28.201Z,147565.66
2023-03-14T04:46:33.053Z,147553.56
2023-03-14T04:47:37.212Z,147562.03
2023-03-14T04:48:39.836Z,147570.53
2023-03-14T04:49:43.803Z,147569.31
2023-03-14T04:50:49.336Z,147575.38
2023-03-14T04:51:52.353Z,147577.78
2023-03-14T04:52:55.682Z,147579.00
2023-03-14T04:53:58.205Z,147566.88
2023-03-14T04:55:00.959Z,147568.13
2023-03-14T04:56:04.679Z,147569.31
2023-03-14T04:57:13.097Z,147564.44
2023-03-14T04:58:16.204Z,147560.81
2023-03-14T04:59:19.322Z,147560.81
2023-03-14T05:00:22.099Z,147552.38
2023-03-14T05:01:44.664Z,147559.63
2023-03-14T05:03:05.585Z,147559.63
2023-03-14T05:04:26.410Z,147583.81
2023-03-14T05:05:52.217Z,147557.19
2023-03-14T05:07:22.121Z,147558.41
2023-03-14T05:08:35.169Z,147549.91
2023-03-14T05:10:06.846Z,147545.06
2023-03-14T05:11:45.733Z,147564.44
2023-03-14T05:13:06.127Z,147569.31
2023-03-14T05:14:40.454Z,147559.63
2023-03-14T05:15:42.853Z,147562.03
2023-03-14T05:16:58.332Z,147571.75
2023-03-14T05:18:10.925Z,147557.19
2023-03-14T05:19:45.606Z,147559.63
2023-03-14T05:21:01.206Z,147565.66
2023-03-14T05:22:22.101Z,147591.06
2023-03-14T05:23:24.489Z,147549.91
2023-03-14T05:24:43.584Z,147542.66
2023-03-14T05:26:12.252Z,147543.84
2023-03-14T05:27:30.132Z,147559.63
2023-03-14T05:28:51.377Z,147554.78
2023-03-14T05:30:21.382Z,147547.47
2023-03-14T05:31:46.998Z,147554.78
2023-03-14T05:33:01.744Z,147551.16
2023-03-14T05:34:23.068Z,147554.78
2023-03-14T05:35:57.655Z,147549.91
2023-03-14T05:37:39.039Z,147542.66
2023-03-14T05:39:01.832Z,147553.56
2023-03-14T05:40:13.241Z,147555.97
2023-03-14T05:41:47.787Z,147554.78
2023-03-14T05:42:56.908Z,147549.91
2023-03-14T05:44:18.513Z,147558.41
2023-03-14T05:45:30.232Z,147558.41
2023-03-14T05:46:43.243Z,147570.53
2023-03-14T05:48:04.231Z,147588.66
2023-03-14T05:49:28.595Z,147559.63
2023-03-14T05:50:57.894Z,147575.38
2023-03-14T05:52:13.360Z,147547.47
2023-03-14T05:53:35.915Z,147558.41
2023-03-14T05:55:07.114Z,147591.06
2023-03-14T05:56:28.236Z,147553.56
2023-03-14T05:57:42.397Z,147540.22
2023-03-14T05:59:03.291Z,147532.94
2023-03-14T06:00:16.605Z,147523.28
2023-03-14T06:01:31.838Z,147499.06
2023-03-14T06:02:45.762Z,147467.59
2023-03-14T06:03:57.532Z,147467.59
2023-03-14T06:04:59.925Z,147466.41
2023-03-14T06:06:02.703Z,147451.91
2023-03-14T06:07:05.086Z,147460.34
2023-03-14T06:08:08.248Z,147465.19
2023-03-14T06:09:11.579Z,147465.19
2023-03-14T06:10:17.321Z,147454.31
2023-03-14T06:11:19.841Z,147465.19
2023-03-14T06:12:22.842Z,147472.47
2023-03-14T06:13:26.093Z,147460.34
2023-03-14T06:14:28.845Z,147466.41
2023-03-14T06:15:31.365Z,147468.81
2023-03-14T06:16:34.149Z,147465.19
2023-03-14T06:17:37.127Z,147465.19
2023-03-14T06:18:44.445Z,147472.47
2023-03-14T06:19:48.886Z,147478.53
2023-03-14T06:20:55.255Z,147479.72
2023-03-14T06:22:01.138Z,147479.72
2023-03-14T06:23:03.648Z,147474.91
2023-03-14T06:24:07.130Z,147470.06
2023-03-14T06:25:15.531Z,147465.19
2023-03-14T06:26:21.530Z,147465.19
2023-03-14T06:27:24.890Z,147465.19
2023-03-14T06:28:30.421Z,147462.78
2023-03-14T06:29:36.055Z,147485.78
2023-03-14T06:30:39.208Z,147484.56
2023-03-14T06:31:44.695Z,147477.31
2023-03-14T06:32:50.669Z,147480.94
2023-03-14T06:33:55.139Z,147480.94
2023-03-14T06:35:01.997Z,147482.16
2023-03-14T06:36:06.460Z,147482.16
2023-03-14T06:37:09.564Z,147477.31
2023-03-14T06:38:12.059Z,147493.03
2023-03-14T06:39:15.068Z,147484.56
2023-03-14T06:40:21.192Z,147486.97
2023-03-14T06:41:31.147Z,147499.06
2023-03-14T06:42:34.873Z,147489.41
2023-03-14T06:43:37.425Z,147482.16
2023-03-14T06:44:41.359Z,147499.06
2023-03-14T06:45:44.009Z,147508.78
2023-03-14T06:46:46.525Z,147529.31
2023-03-14T06:47:49.032Z,147524.47
2023-03-14T06:48:54.552Z,147537.81
2023-03-14T06:49:57.074Z,147541.44
2023-03-14T06:50:59.840Z,147540.22
2023-03-14T06:52:02.351Z,147571.75
2023-03-14T06:53:06.075Z,147571.75
2023-03-14T06:54:10.878Z,147592.28
2023-03-14T06:55:13.520Z,147595.91
2023-03-14T06:56:16.159Z,147622.53
2023-03-14T06:57:18.559Z,147639.50
2023-03-14T06:58:21.556Z,147663.69
2023-03-14T06:59:24.198Z,147675.81
2023-03-14T07:00:26.603Z,147670.97
2023-03-14T07:01:33.930Z,147668.56
2023-03-14T07:02:43.525Z,147697.63
2023-03-14T07:03:58.078Z,147680.66
2023-03-14T07:05:01.765Z,147666.16
2023-03-14T07:06:04.283Z,147666.16
2023-03-14T07:07:09.090Z,147673.41
2023-03-14T07:08:11.844Z,147675.81
2023-03-14T07:09:15.443Z,147666.16
2023-03-14T07:10:24.333Z,147658.84
2023-03-14T07:11:27.323Z,147664.94
2023-03-14T07:12:29.967Z,147645.56
2023-03-14T07:13:32.369Z,147644.34
2023-03-14T07:14:39.565Z,147656.44
2023-03-14T07:15:42.244Z,147657.63
2023-03-14T07:16:46.408Z,147641.94
2023-03-14T07:17:51.586Z,147668.56
2023-03-14T07:18:56.968Z,147663.69
2023-03-14T07:20:01.295Z,147673.41
2023-03-14T07:21:04.173Z,147703.66
2023-03-14T07:22:06.813Z,147679.44
2023-03-14T07:23:09.332Z,147708.50
2023-03-14T07:24:24.222Z,147692.75
2023-03-14T07:25:27.952Z,147691.53
2023-03-14T07:26:30.575Z,147683.06
2023-03-14T07:27:33.218Z,147669.78
2023-03-14T07:28:35.983Z,147643.13
2023-03-14T07:29:45.977Z,147627.38
2023-03-14T07:30:49.269Z,147610.47
2023-03-14T07:32:00.340Z,147604.41
2023-03-14T07:33:02.931Z,147582.63
2023-03-14T07:34:05.502Z,147595.91
2023-03-14T07:35:12.227Z,147622.53
2023-03-14T07:36:17.034Z,147587.44
2023-03-14T07:37:21.107Z,147592.28
2023-03-14T07:38:23.625Z,147577.78
2023-03-14T07:39:46.081Z,147587.44
2023-03-14T07:41:02.282Z,147622.53
2023-03-14T07:42:06.828Z,147600.78
2023-03-14T07:43:15.012Z,147617.72
2023-03-14T07:44:22.218Z,147617.72
2023-03-14T07:45:25.264Z,147603.22
2023-03-14T07:46:27.860Z,147595.91
2023-03-14T07:47:30.357Z,147605.63
2023-03-14T07:48:33.002Z,147603.22
2023-03-14T07:49:35.532Z,147612.88
2023-03-14T07:50:38.057Z,147603.22
2023-03-14T07:51:40.679Z,147603.22
2023-03-14T07:52:43.199Z,147603.22
2023-03-14T07:53:46.679Z,147600.78
2023-03-14T07:54:49.201Z,147617.72
2023-03-14T07:55:55.684Z,147640.72
2023-03-14T07:57:01.604Z,147631.00
2023-03-14T07:58:04.250Z,147646.75
2023-03-14T07:59:06.843Z,147661.25
2023-03-14T08:00:10.091Z,147673.41
2023-03-14T08:01:15.485Z,147673.41
2023-03-14T08:02:19.126Z,147668.56
2023-03-14T08:03:21.607Z,147651.59
2023-03-14T08:04:24.132Z,147639.50
2023-03-14T08:05:26.674Z,147650.38
2023-03-14T08:06:29.170Z,147637.09
2023-03-14T08:07:31.688Z,147650.38
2023-03-14T08:08:34.824Z,147645.56
2023-03-14T08:09:37.345Z,147664.94
2023-03-14T08:10:39.852Z,147654.00
2023-03-14T08:11:42.497Z,147631.00
2023-03-14T08:12:44.888Z,147641.94
2023-03-14T08:13:50.774Z,147629.78
2023-03-14T08:14:53.169Z,147632.25
2023-03-14T08:15:55.750Z,147623.75
2023-03-14T08:16:59.058Z,147628.59
2023-03-14T08:18:01.588Z,147617.72
2023-03-14T08:19:04.213Z,147608.03
2023-03-14T08:20:09.760Z,147632.25
2023-03-14T08:21:12.496Z,147637.09
2023-03-14T08:22:15.721Z,147634.69
2023-03-14T08:23:18.741Z,147615.28
2023-03-14T08:24:21.258Z,147620.13
2023-03-14T08:25:23.830Z,147620.13
2023-03-14T08:26:26.424Z,147616.50
2023-03-14T08:27:28.843Z,147634.69
2023-03-14T08:28:33.619Z,147646.75
2023-03-14T08:29:36.140Z,147643.13
2023-03-14T08:30:38.707Z,147628.59
2023-03-14T08:31:41.265Z,147620.13
2023-03-14T08:32:44.010Z,147624.97
2023-03-14T08:33:46.605Z,147600.78
2023-03-14T08:34:49.107Z,147548.69
2023-03-14T08:35:59.444Z,147407.16
2023-03-14T08:37:04.356Z,147285.00
2023-03-14T08:38:08.908Z,147191.91
2023-03-14T08:39:11.591Z,147154.44
2023-03-14T08:40:14.554Z,147150.81
2023-03-14T08:41:17.189Z,147124.22
2023-03-14T08:42:19.606Z,147087.94
2023-03-14T08:43:22.117Z,147038.38
2023-03-14T08:44:24.568Z,147014.25
2023-03-14T08:45:27.149Z,146988.88
2023-03-14T08:46:29.574Z,146933.28
2023-03-14T08:47:32.204Z,146921.22
2023-03-14T08:48:34.719Z,146885.00
2023-03-14T08:49:37.289Z,146849.94
2023-03-14T08:50:39.876Z,146810.09
2023-03-14T08:51:42.518Z,146807.69
2023-03-14T08:52:45.086Z,146778.72
2023-03-14T08:53:47.441Z,146753.38
2023-03-14T08:54:49.958Z,146761.81
2023-03-14T08:55:54.888Z,146747.31
2023-03-14T08:56:57.996Z,146708.69
2023-03-14T08:58:00.397Z,146659.25
2023-03-14T08:59:02.920Z,146655.63
2023-03-14T09:00:11.590Z,146660.44
2023-03-14T09:01:14.343Z,146614.56
2023-03-14T09:02:16.963Z,146568.72
2023-03-14T09:03:19.434Z,146537.38
2023-03-14T09:04:22.273Z,146525.28
2023-03-14T09:05:24.764Z,146520.41
2023-03-14T09:06:27.169Z,146503.53
2023-03-14T09:07:29.685Z,146443.22
2023-03-14T09:08:32.446Z,146409.47
2023-03-14T09:09:35.206Z,146366.06
2023-03-14T09:10:39.685Z,146332.31
2023-03-14T09:11:42.530Z,146281.66
2023-03-14T09:12:44.933Z,146280.44
2023-03-14T09:13:47.451Z,146317.81
2023-03-14T09:14:49.849Z,146293.69
2023-03-14T09:15:56.689Z,146297.31
2023-03-14T09:16:59.450Z,146264.75
2023-03-14T09:18:01.985Z,146226.19
2023-03-14T09:19:04.540Z,146220.19
2023-03-14T09:20:08.452Z,146187.63
2023-03-14T09:21:10.980Z,146175.59
2023-03-14T09:22:13.413Z,146176.81
2023-03-14T09:23:16.496Z,146202.13
2023-03-14T09:24:19.026Z,146174.41
2023-03-14T09:25:21.777Z,146191.25
2023-03-14T09:26:24.317Z,146175.59
2023-03-14T09:27:26.821Z,146141.88
2023-03-14T09:28:29.583Z,146110.53
2023-03-14T09:29:32.106Z,146124.97
2023-03-14T09:30:34.864Z,146170.78
2023-03-14T09:31:37.388Z,146173.19
2023-03-14T09:32:40.009Z,146180.41
2023-03-14T09:33:42.545Z,146199.69
2023-03-14T09:34:45.066Z,146204.53
2023-03-14T09:35:47.732Z,146204.53
2023-03-14T09:36:50.226Z,146221.38
2023-03-14T09:37:52.750Z,146256.34
2023-03-14T09:38:55.147Z,146215.38
2023-03-14T09:39:57.552Z,146187.63
2023-03-14T09:41:02.109Z,146231.00
2023-03-14T09:42:09.313Z,146264.75
2023-03-14T09:43:15.567Z,146245.50
2023-03-14T09:44:26.109Z,146238.28
2023-03-14T09:45:32.594Z,146244.28
2023-03-14T09:46:37.991Z,146243.09
2023-03-14T09:47:56.502Z,146267.22
2023-03-14T09:49:01.152Z,146243.09
2023-03-14T09:50:04.631Z,146250.31
2023-03-14T09:51:14.708Z,146247.91
2023-03-14T09:52:37.994Z,146270.81
2023-03-14T09:53:49.521Z,146299.75
2023-03-14T09:54:55.280Z,146293.69
2023-03-14T09:55:59.236Z,146286.47
2023-03-14T09:57:03.075Z,146266.00
2023-03-14T09:58:13.759Z,146305.78
2023-03-14T09:59:17.295Z,146291.28
2023-03-14T10:00:26.596Z,146327.44
2023-03-14T10:01:32.797Z,146327.44
2023-03-14T10:02:36.800Z,146347.97
2023-03-14T10:03:39.433Z,146327.44
2023-03-14T10:04:45.542Z,146313.00
2023-03-14T10:05:48.314Z,146308.19
2023-03-14T10:06:51.079Z,146296.09
2023-03-14T10:07:53.598Z,146334.72
2023-03-14T10:08:57.919Z,146349.16
2023-03-14T10:10:01.282Z,146375.69
2023-03-14T10:11:03.929Z,146369.69
2023-03-14T10:12:09.532Z,146381.72
2023-03-14T10:13:12.208Z,146368.47
2023-03-14T10:14:37.044Z,146344.34
2023-03-14T10:15:39.800Z,146305.78
2023-03-14T10:16:45.481Z,146349.16
2023-03-14T10:17:49.811Z,146339.53
2023-03-14T10:18:52.282Z,146313.00
2023-03-14T10:19:56.646Z,146327.44
2023-03-14T10:21:28.533Z,146358.78
2023-03-14T10:22:32.605Z,146323.84
2023-03-14T10:23:36.115Z,146338.31
2023-03-14T10:24:46.052Z,146334.72
2023-03-14T10:26:08.868Z,146367.28
2023-03-14T10:27:23.247Z,146373.28
2023-03-14T10:28:31.530Z,146361.19
2023-03-14T10:29:35.615Z,146356.38
2023-03-14T10:30:46.459Z,146366.06
2023-03-14T10:31:53.684Z,146414.28
2023-03-14T10:32:56.180Z,146384.13
2023-03-14T10:34:04.917Z,146407.06
2023-03-14T10:35:20.260Z,146404.66
2023-03-14T10:36:27.343Z,146426.31
2023-03-14T10:37:29.980Z,146423.91
2023-03-14T10:38:35.649Z,146466.16
2023-03-14T10:39:43.306Z,146474.59
2023-03-14T10:40:50.508Z,146480.59
2023-03-14T10:42:04.662Z,146499.94
2023-03-14T10:43:14.630Z,146502.34
2023-03-14T10:44:22.554Z,146527.72
2023-03-14T10:45:41.147Z,146539.78
2023-03-14T10:46:43.685Z,146539.78
2023-03-14T10:48:37.204Z,146614.56
2023-03-14T10:49:39.831Z,146632.69
2023-03-14T10:51:26.753Z,146701.47
2023-03-14T10:52:31.509Z,146776.28
2023-03-14T10:53:50.660Z,146870.47
2023-03-14T10:55:09.978Z,146999.72
2023-03-14T10:56:21.372Z,147103.63
2023-03-14T10:57:24.116Z,147161.69
2023-03-14T10:58:34.194Z,147241.50
2023-03-14T10:59:39.722Z,147276.56
2023-03-14T11:00:42.239Z,147271.69
2023-03-14T11:02:19.801Z,147270.47
2023-03-14T11:03:23.696Z,147179.84
2023-03-14T11:04:36.934Z,147201.56
2023-03-14T11:05:56.759Z,147214.88
2023-03-14T11:07:15.727Z,147225.75
2023-03-14T11:09:16.803Z,147283.81
2023-03-14T11:10:34.808Z,147304.31
2023-03-14T11:11:40.836Z,147327.31
2023-03-14T11:12:51.007Z,147300.69
2023-03-14T11:14:27.498Z,147428.91
2023-03-14T11:15:39.163Z,147520.84
2023-03-14T11:16:54.376Z,147585.03
2023-03-14T11:18:08.415Z,147595.91
2023-03-14T11:20:01.455Z,147563.22
2023-03-14T11:21:19.461Z,147455.53
2023-03-14T11:22:43.094Z,147466.41
2023-03-14T11:24:00.378Z,147396.25
2023-03-14T11:25:41.558Z,147518.44
2023-03-14T11:26:54.860Z,147381.75
2023-03-14T11:28:10.826Z,147462.78
2023-03-14T11:29:40.838Z,147654.00
2023-03-14T11:31:23.561Z,147652.81
2023-03-14T11:32:49.768Z,147518.44
2023-03-14T11:34:17.784Z,147391.41
2023-03-14T11:35:32.457Z,147373.28
2023-03-14T11:36:42.384Z,147366.00
2023-03-14T11:37:59.221Z,147375.72
2023-03-14T11:39:02.075Z,147281.38
2023-03-14T11:40:24.871Z,147278.97
2023-03-14T11:41:37.116Z,147237.84
2023-03-14T11:42:43.954Z,147199.16
2023-03-14T11:43:50.188Z,147141.13
2023-03-14T11:44:54.990Z,147087.94
2023-03-14T11:46:08.922Z,147048.06
2023-03-14T11:47:21.888Z,147026.31
2023-03-14T11:48:33.391Z,146999.72
2023-03-14T11:49:41.552Z,147002.13
2023-03-14T11:50:45.408Z,147040.78
2023-03-14T11:51:54.876Z,147080.69
2023-03-14T11:53:04.954Z,147115.78
2023-03-14T11:54:16.243Z,147168.94
2023-03-14T11:55:27.197Z,147242.72
2023-03-14T11:56:42.277Z,147293.47
2023-03-14T11:57:46.972Z,147346.69
2023-03-14T11:59:18.052Z,147505.16
2023-03-14T12:00:25.855Z,147685.50
2023-03-14T12:01:54.716Z,147675.81
2023-03-14T12:03:26.511Z,147744.81
2023-03-14T12:04:55.840Z,147833.22
2023-03-14T12:06:02.577Z,147784.75
2023-03-14T12:07:15.947Z,147777.50
2023-03-14T12:08:27.761Z,147746.03
2023-03-14T12:09:30.883Z,147726.63
2023-03-14T12:10:53.816Z,147733.94
2023-03-14T12:12:00.772Z,147691.53
2023-03-14T12:13:03.291Z,147522.06
2023-03-14T12:14:21.045Z,147479.72
2023-03-14T12:15:25.607Z,147412.00
2023-03-14T12:16:40.755Z,147283.81
2023-03-14T12:17:47.452Z,147208.84
2023-03-14T12:18:50.570Z,147252.38
2023-03-14T12:20:07.260Z,147387.78
2023-03-14T12:21:13.742Z,147503.94
2023-03-14T12:22:28.851Z,147509.97
2023-03-14T12:23:40.497Z,147484.56
2023-03-14T12:24:50.571Z,147421.66
2023-03-14T12:26:23.700Z,147432.53
2023-03-14T12:27:45.192Z,147600.78
2023-03-14T12:28:53.006Z,147804.16
2023-03-14T12:30:03.682Z,148062.22
2023-03-14T12:31:32.272Z,148326.53
2023-03-14T12:32:34.867Z,148458.75
2023-03-14T12:33:37.496Z,148563.13
2023-03-14T12:34:46.539Z,148589.84
2023-03-14T12:35:53.892Z,148626.22
2023-03-14T12:37:35.706Z,148497.56
2023-03-14T12:38:38.105Z,148335.00
2023-03-14T12:39:51.303Z,148401.72
2023-03-14T12:41:14.375Z,148475.69
2023-03-14T12:42:44.419Z,148318.06
2023-03-14T12:43:48.193Z,148142.19
2023-03-14T12:44:52.030Z,147947.09
2023-03-14T12:46:19.117Z,147839.28
2023-03-14T12:47:21.544Z,147583.81
2023-03-14T12:48:26.126Z,147557.19
2023-03-14T12:49:32.947Z,147529.31
2023-03-14T12:50:46.994Z,147390.19
2023-03-14T12:51:49.509Z,147332.16